sensor_id;sensor_type;location;lat;lon;timestamp;P1;durP1;ratioP1;P2;durP2;ratioP2
51082;SDS011;37131;42.694;23.350;2022-07-05T00:00:34;4.13;;;1.20;;
51082;SDS011;37131;42.694;23.350;2022-07-05T00:02:59;2.35;;;1.20;;
51082;SDS011;37131;42.694;23.350;2022-07-05T00:05:25;3.45;;;1.05;;
51082;SDS011;37131;42.694;23.350;2022-07-05T00:07:50;2.15;;;1.15;;
51082;SDS011;37131;42.694;23.350;2022-07-05T00:10:16;2.25;;;1.02;;
51082;SDS011;37131;42.694;23.350;2022-07-05T00:12:41;3.40;;;1.08;;
51082;SDS011;37131;42.694;23.350;2022-07-05T00:15:07;2.53;;;1.00;;
51082;SDS011;37131;42.694;23.350;2022-07-05T00:17:33;6.57;;;1.27;;
51082;SDS011;37131;42.694;23.350;2022-07-05T00:19:58;2.88;;;0.90;;
51082;SDS011;37131;42.694;23.350;2022-07-05T00:22:23;4.63;;;0.90;;
51082;SDS011;37131;42.694;23.350;2022-07-05T00:24:49;2.25;;;0.80;;
51082;SDS011;37131;42.694;23.350;2022-07-05T00:27:15;2.63;;;1.10;;
51082;SDS011;37131;42.694;23.350;2022-07-05T00:29:41;5.65;;;1.20;;
51082;SDS011;37131;42.694;23.350;2022-07-05T00:32:06;1.33;;;0.77;;
51082;SDS011;37131;42.694;23.350;2022-07-05T00:34:32;7.63;;;1.17;;
51082;SDS011;37131;42.694;23.350;2022-07-05T00:36:57;5.53;;;1.25;;
51082;SDS011;37131;42.694;23.350;2022-07-05T00:39:22;3.90;;;1.25;;
51082;SDS011;37131;42.694;23.350;2022-07-05T00:41:48;3.13;;;1.10;;
51082;SDS011;37131;42.694;23.350;2022-07-05T00:44:13;2.33;;;0.88;;
51082;SDS011;37131;42.694;23.350;2022-07-05T00:46:39;5.05;;;1.23;;
51082;SDS011;37131;42.694;23.350;2022-07-05T00:49:07;6.85;;;1.42;;
51082;SDS011;37131;42.694;23.350;2022-07-05T00:51:34;3.65;;;1.35;;
51082;SDS011;37131;42.694;23.350;2022-07-05T00:54:01;3.72;;;1.27;;
51082;SDS011;37131;42.694;23.350;2022-07-05T00:56:27;4.35;;;1.50;;
51082;SDS011;37131;42.694;23.350;2022-07-05T00:58:53;4.60;;;1.10;;
51082;SDS011;37131;42.694;23.350;2022-07-05T01:01:19;2.20;;;1.17;;
51082;SDS011;37131;42.694;23.350;2022-07-05T01:03:45;4.20;;;1.20;;
51082;SDS011;37131;42.694;23.350;2022-07-05T01:06:11;6.97;;;1.40;;
51082;SDS011;37131;42.694;23.350;2022-07-05T01:08:39;1.98;;;1.08;;
51082;SDS011;37131;42.694;23.350;2022-07-05T01:11:06;2.10;;;1.10;;
51082;SDS011;37131;42.694;23.350;2022-07-05T01:13:33;2.08;;;0.90;;
51082;SDS011;37131;42.694;23.350;2022-07-05T01:16:00;2.40;;;1.27;;
51082;SDS011;37131;42.694;23.350;2022-07-05T01:18:26;1.58;;;1.02;;
51082;SDS011;37131;42.694;23.350;2022-07-05T01:20:53;5.22;;;0.75;;
51082;SDS011;37131;42.694;23.350;2022-07-05T01:23:19;2.83;;;1.13;;
51082;SDS011;37131;42.694;23.350;2022-07-05T01:25:48;3.47;;;1.17;;
51082;SDS011;37131;42.694;23.350;2022-07-05T01:28:15;5.07;;;1.17;;
51082;SDS011;37131;42.694;23.350;2022-07-05T01:30:41;4.00;;;0.88;;
51082;SDS011;37131;42.694;23.350;2022-07-05T01:33:07;1.60;;;0.88;;
51082;SDS011;37131;42.694;23.350;2022-07-05T01:35:34;2.58;;;1.15;;
51082;SDS011;37131;42.694;23.350;2022-07-05T01:38:00;4.10;;;1.42;;
51082;SDS011;37131;42.694;23.350;2022-07-05T01:40:26;3.53;;;1.00;;
51082;SDS011;37131;42.694;23.350;2022-07-05T01:42:52;5.85;;;1.20;;
51082;SDS011;37131;42.694;23.350;2022-07-05T01:45:18;3.33;;;1.30;;
51082;SDS011;37131;42.694;23.350;2022-07-05T01:48:03;1.88;;;1.00;;
51082;SDS011;37131;42.694;23.350;2022-07-05T01:50:31;2.50;;;1.15;;
51082;SDS011;37131;42.694;23.350;2022-07-05T01:53:01;4.03;;;1.30;;
51082;SDS011;37131;42.694;23.350;2022-07-05T01:55:28;5.05;;;1.17;;
51082;SDS011;37131;42.694;23.350;2022-07-05T01:57:54;2.35;;;0.82;;
51082;SDS011;37131;42.694;23.350;2022-07-05T02:00:20;2.05;;;1.10;;
51082;SDS011;37131;42.694;23.350;2022-07-05T02:02:46;2.28;;;1.00;;
51082;SDS011;37131;42.694;23.350;2022-07-05T02:05:12;4.00;;;0.90;;
51082;SDS011;37131;42.694;23.350;2022-07-05T02:07:45;3.60;;;1.30;;
51082;SDS011;37131;42.694;23.350;2022-07-05T02:10:12;2.95;;;1.17;;
51082;SDS011;37131;42.694;23.350;2022-07-05T02:12:38;2.88;;;0.90;;
51082;SDS011;37131;42.694;23.350;2022-07-05T02:15:03;2.88;;;1.10;;
51082;SDS011;37131;42.694;23.350;2022-07-05T02:17:29;4.40;;;1.00;;
51082;SDS011;37131;42.694;23.350;2022-07-05T02:19:54;1.38;;;0.85;;
51082;SDS011;37131;42.694;23.350;2022-07-05T02:22:20;4.57;;;1.30;;
51082;SDS011;37131;42.694;23.350;2022-07-05T02:24:45;3.00;;;1.05;;
51082;SDS011;37131;42.694;23.350;2022-07-05T02:27:11;3.00;;;1.27;;
51082;SDS011;37131;42.694;23.350;2022-07-05T02:29:37;3.58;;;1.20;;
51082;SDS011;37131;42.694;23.350;2022-07-05T02:32:02;2.53;;;1.23;;
51082;SDS011;37131;42.694;23.350;2022-07-05T02:34:28;3.33;;;1.20;;
51082;SDS011;37131;42.694;23.350;2022-07-05T02:36:53;3.10;;;1.75;;
51082;SDS011;37131;42.694;23.350;2022-07-05T02:39:18;3.10;;;1.30;;
51082;SDS011;37131;42.694;23.350;2022-07-05T02:41:44;3.67;;;1.27;;
51082;SDS011;37131;42.694;23.350;2022-07-05T02:44:09;2.85;;;1.23;;
51082;SDS011;37131;42.694;23.350;2022-07-05T02:46:35;1.73;;;1.13;;
51082;SDS011;37131;42.694;23.350;2022-07-05T02:49:00;2.80;;;1.38;;
51082;SDS011;37131;42.694;23.350;2022-07-05T02:51:26;5.10;;;1.45;;
51082;SDS011;37131;42.694;23.350;2022-07-05T02:53:51;3.92;;;1.52;;
51082;SDS011;37131;42.694;23.350;2022-07-05T02:56:17;5.57;;;1.42;;
51082;SDS011;37131;42.694;23.350;2022-07-05T02:58:42;2.97;;;1.08;;
51082;SDS011;37131;42.694;23.350;2022-07-05T03:01:08;2.63;;;1.20;;
51082;SDS011;37131;42.694;23.350;2022-07-05T03:03:33;4.55;;;1.27;;
51082;SDS011;37131;42.694;23.350;2022-07-05T03:05:58;3.55;;;1.13;;
51082;SDS011;37131;42.694;23.350;2022-07-05T03:08:24;5.20;;;1.30;;
51082;SDS011;37131;42.694;23.350;2022-07-05T03:10:49;3.83;;;1.15;;
51082;SDS011;37131;42.694;23.350;2022-07-05T03:13:15;6.03;;;1.45;;
51082;SDS011;37131;42.694;23.350;2022-07-05T03:15:41;5.20;;;1.15;;
51082;SDS011;37131;42.694;23.350;2022-07-05T03:18:07;2.67;;;1.42;;
51082;SDS011;37131;42.694;23.350;2022-07-05T03:20:33;2.95;;;1.63;;
51082;SDS011;37131;42.694;23.350;2022-07-05T03:22:58;6.13;;;1.73;;
51082;SDS011;37131;42.694;23.350;2022-07-05T03:25:24;4.47;;;1.48;;
51082;SDS011;37131;42.694;23.350;2022-07-05T03:27:49;3.65;;;1.60;;
51082;SDS011;37131;42.694;23.350;2022-07-05T03:30:14;3.05;;;1.35;;
51082;SDS011;37131;42.694;23.350;2022-07-05T03:32:40;5.25;;;1.65;;
51082;SDS011;37131;42.694;23.350;2022-07-05T03:35:05;9.43;;;1.83;;
51082;SDS011;37131;42.694;23.350;2022-07-05T03:37:31;2.88;;;1.33;;
51082;SDS011;37131;42.694;23.350;2022-07-05T03:39:56;5.38;;;1.65;;
51082;SDS011;37131;42.694;23.350;2022-07-05T03:42:22;7.35;;;1.65;;
51082;SDS011;37131;42.694;23.350;2022-07-05T03:44:47;4.75;;;1.38;;
51082;SDS011;37131;42.694;23.350;2022-07-05T03:47:13;2.58;;;1.30;;
51082;SDS011;37131;42.694;23.350;2022-07-05T03:49:39;5.72;;;1.60;;
51082;SDS011;37131;42.694;23.350;2022-07-05T03:52:05;6.07;;;1.40;;
51082;SDS011;37131;42.694;23.350;2022-07-05T03:54:30;7.15;;;1.60;;
51082;SDS011;37131;42.694;23.350;2022-07-05T03:56:56;3.15;;;1.50;;
51082;SDS011;37131;42.694;23.350;2022-07-05T03:59:21;5.35;;;1.50;;
51082;SDS011;37131;42.694;23.350;2022-07-05T04:01:46;6.43;;;1.40;;
51082;SDS011;37131;42.694;23.350;2022-07-05T04:04:12;3.63;;;1.70;;
51082;SDS011;37131;42.694;23.350;2022-07-05T04:06:37;2.47;;;1.33;;
51082;SDS011;37131;42.694;23.350;2022-07-05T04:09:03;2.65;;;1.67;;
51082;SDS011;37131;42.694;23.350;2022-07-05T04:11:28;2.55;;;1.52;;
51082;SDS011;37131;42.694;23.350;2022-07-05T04:13:54;6.45;;;1.60;;
51082;SDS011;37131;42.694;23.350;2022-07-05T04:16:19;10.52;;;2.60;;
51082;SDS011;37131;42.694;23.350;2022-07-05T04:18:45;5.75;;;1.85;;
51082;SDS011;37131;42.694;23.350;2022-07-05T04:21:10;4.45;;;1.70;;
51082;SDS011;37131;42.694;23.350;2022-07-05T04:23:36;7.35;;;1.80;;
51082;SDS011;37131;42.694;23.350;2022-07-05T04:26:01;3.95;;;1.23;;
51082;SDS011;37131;42.694;23.350;2022-07-05T04:28:27;4.68;;;1.50;;
51082;SDS011;37131;42.694;23.350;2022-07-05T04:30:55;4.22;;;1.60;;
51082;SDS011;37131;42.694;23.350;2022-07-05T04:33:21;12.00;;;2.70;;
51082;SDS011;37131;42.694;23.350;2022-07-05T04:35:46;3.30;;;1.45;;
51082;SDS011;37131;42.694;23.350;2022-07-05T04:38:12;6.68;;;1.80;;
51082;SDS011;37131;42.694;23.350;2022-07-05T04:40:37;6.10;;;1.65;;
51082;SDS011;37131;42.694;23.350;2022-07-05T04:43:03;8.40;;;1.60;;
51082;SDS011;37131;42.694;23.350;2022-07-05T04:45:29;3.65;;;1.30;;
51082;SDS011;37131;42.694;23.350;2022-07-05T04:47:54;2.95;;;1.50;;
51082;SDS011;37131;42.694;23.350;2022-07-05T04:50:19;5.43;;;1.63;;
51082;SDS011;37131;42.694;23.350;2022-07-05T04:52:45;5.03;;;1.55;;
51082;SDS011;37131;42.694;23.350;2022-07-05T04:55:10;5.30;;;1.88;;
51082;SDS011;37131;42.694;23.350;2022-07-05T04:57:39;4.18;;;1.85;;
51082;SDS011;37131;42.694;23.350;2022-07-05T05:00:06;4.88;;;1.90;;
51082;SDS011;37131;42.694;23.350;2022-07-05T05:02:34;3.72;;;2.00;;
51082;SDS011;37131;42.694;23.350;2022-07-05T05:04:59;7.50;;;1.77;;
51082;SDS011;37131;42.694;23.350;2022-07-05T05:07:25;3.15;;;1.42;;
51082;SDS011;37131;42.694;23.350;2022-07-05T05:09:51;4.10;;;1.50;;
51082;SDS011;37131;42.694;23.350;2022-07-05T05:12:17;5.18;;;1.45;;
51082;SDS011;37131;42.694;23.350;2022-07-05T05:14:42;4.70;;;1.75;;
51082;SDS011;37131;42.694;23.350;2022-07-05T05:17:07;3.38;;;1.73;;
51082;SDS011;37131;42.694;23.350;2022-07-05T05:19:33;8.70;;;1.77;;
51082;SDS011;37131;42.694;23.350;2022-07-05T05:21:58;9.68;;;1.70;;
51082;SDS011;37131;42.694;23.350;2022-07-05T05:24:24;6.97;;;2.05;;
51082;SDS011;37131;42.694;23.350;2022-07-05T05:26:49;11.25;;;2.03;;
51082;SDS011;37131;42.694;23.350;2022-07-05T05:29:16;3.75;;;1.98;;
51082;SDS011;37131;42.694;23.350;2022-07-05T05:31:42;7.55;;;2.10;;
51082;SDS011;37131;42.694;23.350;2022-07-05T05:34:07;3.97;;;1.88;;
51082;SDS011;37131;42.694;23.350;2022-07-05T05:36:33;14.40;;;3.05;;
51082;SDS011;37131;42.694;23.350;2022-07-05T05:38:58;10.05;;;2.13;;
51082;SDS011;37131;42.694;23.350;2022-07-05T05:41:24;6.75;;;2.05;;
51082;SDS011;37131;42.694;23.350;2022-07-05T05:43:49;5.22;;;2.03;;
51082;SDS011;37131;42.694;23.350;2022-07-05T05:46:14;7.65;;;2.20;;
51082;SDS011;37131;42.694;23.350;2022-07-05T05:48:40;4.60;;;2.25;;
51082;SDS011;37131;42.694;23.350;2022-07-05T05:51:05;10.70;;;1.95;;
51082;SDS011;37131;42.694;23.350;2022-07-05T05:53:31;5.00;;;2.30;;
51082;SDS011;37131;42.694;23.350;2022-07-05T05:55:56;6.82;;;1.60;;
51082;SDS011;37131;42.694;23.350;2022-07-05T05:58:22;7.07;;;2.03;;
51082;SDS011;37131;42.694;23.350;2022-07-05T06:00:51;7.05;;;2.30;;
51082;SDS011;37131;42.694;23.350;2022-07-05T06:03:20;4.60;;;1.88;;
51082;SDS011;37131;42.694;23.350;2022-07-05T06:05:47;5.88;;;2.20;;
51082;SDS011;37131;42.694;23.350;2022-07-05T06:08:12;5.00;;;1.77;;
51082;SDS011;37131;42.694;23.350;2022-07-05T06:10:38;4.68;;;2.00;;
51082;SDS011;37131;42.694;23.350;2022-07-05T06:13:07;6.20;;;1.85;;
51082;SDS011;37131;42.694;23.350;2022-07-05T06:15:34;5.10;;;1.70;;
51082;SDS011;37131;42.694;23.350;2022-07-05T06:18:00;7.38;;;2.13;;
51082;SDS011;37131;42.694;23.350;2022-07-05T06:20:27;4.60;;;1.77;;
51082;SDS011;37131;42.694;23.350;2022-07-05T06:22:54;7.78;;;2.13;;
51082;SDS011;37131;42.694;23.350;2022-07-05T06:25:21;12.50;;;2.78;;
51082;SDS011;37131;42.694;23.350;2022-07-05T06:27:47;6.40;;;2.05;;
51082;SDS011;37131;42.694;23.350;2022-07-05T06:30:15;5.93;;;2.10;;
51082;SDS011;37131;42.694;23.350;2022-07-05T06:32:42;3.40;;;2.13;;
51082;SDS011;37131;42.694;23.350;2022-07-05T06:35:09;9.27;;;2.10;;
51082;SDS011;37131;42.694;23.350;2022-07-05T06:40:10;9.02;;;2.25;;
51082;SDS011;37131;42.694;23.350;2022-07-05T06:42:37;5.40;;;2.25;;
51082;SDS011;37131;42.694;23.350;2022-07-05T06:45:04;6.68;;;1.85;;
51082;SDS011;37131;42.694;23.350;2022-07-05T06:47:33;8.75;;;2.28;;
51082;SDS011;37131;42.694;23.350;2022-07-05T06:49:59;6.63;;;2.05;;
51082;SDS011;37131;42.694;23.350;2022-07-05T06:52:25;8.93;;;2.00;;
51082;SDS011;37131;42.694;23.350;2022-07-05T06:54:50;11.95;;;2.10;;
51082;SDS011;37131;42.694;23.350;2022-07-05T06:57:19;4.20;;;1.90;;
51082;SDS011;37131;42.694;23.350;2022-07-05T06:59:45;4.53;;;2.10;;
51082;SDS011;37131;42.694;23.350;2022-07-05T07:02:11;3.88;;;1.95;;
51082;SDS011;37131;42.694;23.350;2022-07-05T07:04:36;7.45;;;2.47;;
51082;SDS011;37131;42.694;23.350;2022-07-05T07:07:01;6.32;;;1.90;;
51082;SDS011;37131;42.694;23.350;2022-07-05T07:09:27;8.50;;;2.28;;
51082;SDS011;37131;42.694;23.350;2022-07-05T07:11:53;9.15;;;2.03;;
51082;SDS011;37131;42.694;23.350;2022-07-05T07:14:18;8.35;;;2.10;;
51082;SDS011;37131;42.694;23.350;2022-07-05T07:16:43;8.02;;;2.25;;
51082;SDS011;37131;42.694;23.350;2022-07-05T07:19:09;5.28;;;2.10;;
51082;SDS011;37131;42.694;23.350;2022-07-05T07:21:34;8.43;;;1.88;;
51082;SDS011;37131;42.694;23.350;2022-07-05T07:24:00;4.75;;;1.63;;
51082;SDS011;37131;42.694;23.350;2022-07-05T07:26:26;5.60;;;1.95;;
51082;SDS011;37131;42.694;23.350;2022-07-05T07:28:51;6.80;;;2.40;;
51082;SDS011;37131;42.694;23.350;2022-07-05T07:31:17;4.43;;;1.80;;
51082;SDS011;37131;42.694;23.350;2022-07-05T07:33:42;10.90;;;3.17;;
51082;SDS011;37131;42.694;23.350;2022-07-05T07:36:07;4.00;;;1.90;;
51082;SDS011;37131;42.694;23.350;2022-07-05T07:38:33;6.45;;;2.22;;
51082;SDS011;37131;42.694;23.350;2022-07-05T07:40:58;3.85;;;2.17;;
51082;SDS011;37131;42.694;23.350;2022-07-05T07:43:25;6.88;;;2.22;;
51082;SDS011;37131;42.694;23.350;2022-07-05T07:45:51;8.68;;;2.10;;
51082;SDS011;37131;42.694;23.350;2022-07-05T07:48:17;6.35;;;2.40;;
51082;SDS011;37131;42.694;23.350;2022-07-05T07:50:43;2.47;;;1.67;;
51082;SDS011;37131;42.694;23.350;2022-07-05T07:53:09;7.13;;;1.77;;
51082;SDS011;37131;42.694;23.350;2022-07-05T07:55:34;10.18;;;2.03;;
51082;SDS011;37131;42.694;23.350;2022-07-05T07:58:00;4.22;;;1.75;;
51082;SDS011;37131;42.694;23.350;2022-07-05T08:00:26;15.30;;;2.97;;
51082;SDS011;37131;42.694;23.350;2022-07-05T08:02:51;6.57;;;2.10;;
51082;SDS011;37131;42.694;23.350;2022-07-05T08:05:17;5.80;;;2.05;;
51082;SDS011;37131;42.694;23.350;2022-07-05T08:07:42;5.95;;;2.28;;
51082;SDS011;37131;42.694;23.350;2022-07-05T08:10:08;5.78;;;2.83;;
51082;SDS011;37131;42.694;23.350;2022-07-05T08:12:33;7.85;;;1.92;;
51082;SDS011;37131;42.694;23.350;2022-07-05T08:14:59;6.85;;;2.35;;
51082;SDS011;37131;42.694;23.350;2022-07-05T08:17:24;5.28;;;1.88;;
51082;SDS011;37131;42.694;23.350;2022-07-05T08:19:50;4.68;;;2.10;;
51082;SDS011;37131;42.694;23.350;2022-07-05T08:22:34;4.28;;;1.73;;
51082;SDS011;37131;42.694;23.350;2022-07-05T08:25:00;5.03;;;1.98;;
51082;SDS011;37131;42.694;23.350;2022-07-05T08:27:25;6.20;;;2.35;;
51082;SDS011;37131;42.694;23.350;2022-07-05T08:29:51;6.35;;;2.00;;
51082;SDS011;37131;42.694;23.350;2022-07-05T08:32:16;4.82;;;2.15;;
51082;SDS011;37131;42.694;23.350;2022-07-05T08:34:43;5.00;;;2.08;;
51082;SDS011;37131;42.694;23.350;2022-07-05T08:37:08;6.13;;;1.90;;
51082;SDS011;37131;42.694;23.350;2022-07-05T08:39:34;6.45;;;1.75;;
51082;SDS011;37131;42.694;23.350;2022-07-05T08:42:00;4.70;;;2.30;;
51082;SDS011;37131;42.694;23.350;2022-07-05T08:44:29;6.22;;;2.00;;
51082;SDS011;37131;42.694;23.350;2022-07-05T08:47:03;11.65;;;2.38;;
51082;SDS011;37131;42.694;23.350;2022-07-05T08:49:33;6.97;;;1.98;;
51082;SDS011;37131;42.694;23.350;2022-07-05T08:51:59;8.50;;;2.08;;
51082;SDS011;37131;42.694;23.350;2022-07-05T08:54:29;6.72;;;2.38;;
51082;SDS011;37131;42.694;23.350;2022-07-05T08:56:55;6.47;;;1.95;;
51082;SDS011;37131;42.694;23.350;2022-07-05T08:59:20;4.75;;;2.10;;
51082;SDS011;37131;42.694;23.350;2022-07-05T09:01:46;4.28;;;1.67;;
51082;SDS011;37131;42.694;23.350;2022-07-05T09:04:12;6.90;;;2.05;;
51082;SDS011;37131;42.694;23.350;2022-07-05T09:06:38;6.88;;;2.10;;
51082;SDS011;37131;42.694;23.350;2022-07-05T09:09:05;3.00;;;1.85;;
51082;SDS011;37131;42.694;23.350;2022-07-05T09:11:40;7.57;;;1.95;;
51082;SDS011;37131;42.694;23.350;2022-07-05T09:14:17;5.20;;;1.90;;
51082;SDS011;37131;42.694;23.350;2022-07-05T09:16:48;4.90;;;1.70;;
51082;SDS011;37131;42.694;23.350;2022-07-05T09:19:13;4.18;;;1.52;;
51082;SDS011;37131;42.694;23.350;2022-07-05T09:21:39;4.82;;;1.92;;
51082;SDS011;37131;42.694;23.350;2022-07-05T09:24:06;8.65;;;1.90;;
51082;SDS011;37131;42.694;23.350;2022-07-05T09:26:38;5.38;;;1.70;;
51082;SDS011;37131;42.694;23.350;2022-07-05T09:29:06;7.65;;;1.80;;
51082;SDS011;37131;42.694;23.350;2022-07-05T09:31:37;5.47;;;1.50;;
51082;SDS011;37131;42.694;23.350;2022-07-05T09:34:04;3.38;;;1.75;;
51082;SDS011;37131;42.694;23.350;2022-07-05T09:39:18;4.97;;;1.70;;
51082;SDS011;37131;42.694;23.350;2022-07-05T09:42:18;6.05;;;1.98;;
51082;SDS011;37131;42.694;23.350;2022-07-05T09:47:18;5.93;;;1.98;;
51082;SDS011;37131;42.694;23.350;2022-07-05T09:49:46;3.95;;;1.90;;
51082;SDS011;37131;42.694;23.350;2022-07-05T09:52:29;3.53;;;1.98;;
51082;SDS011;37131;42.694;23.350;2022-07-05T09:55:15;4.32;;;1.98;;
51082;SDS011;37131;42.694;23.350;2022-07-05T09:57:44;4.22;;;1.83;;
51082;SDS011;37131;42.694;23.350;2022-07-05T10:00:15;7.15;;;2.03;;
51082;SDS011;37131;42.694;23.350;2022-07-05T10:02:46;3.22;;;2.03;;
51082;SDS011;37131;42.694;23.350;2022-07-05T10:05:17;5.70;;;2.20;;
51082;SDS011;37131;42.694;23.350;2022-07-05T10:10:17;8.30;;;2.60;;
51082;SDS011;37131;42.694;23.350;2022-07-05T10:12:44;5.10;;;2.22;;
51082;SDS011;37131;42.694;23.350;2022-07-05T10:15:12;9.73;;;2.50;;
51082;SDS011;37131;42.694;23.350;2022-07-05T10:17:40;6.03;;;2.42;;
51082;SDS011;37131;42.694;23.350;2022-07-05T10:20:33;7.10;;;2.60;;
51082;SDS011;37131;42.694;23.350;2022-07-05T10:23:07;4.43;;;2.40;;
51082;SDS011;37131;42.694;23.350;2022-07-05T10:25:38;7.20;;;2.50;;
51082;SDS011;37131;42.694;23.350;2022-07-05T10:28:05;6.65;;;2.58;;
51082;SDS011;37131;42.694;23.350;2022-07-05T10:30:31;8.75;;;2.58;;
51082;SDS011;37131;42.694;23.350;2022-07-05T10:32:59;8.32;;;2.50;;
51082;SDS011;37131;42.694;23.350;2022-07-05T10:35:27;8.07;;;2.90;;
51082;SDS011;37131;42.694;23.350;2022-07-05T10:37:52;3.30;;;2.40;;
51082;SDS011;37131;42.694;23.350;2022-07-05T10:40:18;3.92;;;2.67;;
51082;SDS011;37131;42.694;23.350;2022-07-05T10:45:35;4.30;;;2.30;;
51082;SDS011;37131;42.694;23.350;2022-07-05T11:06:21;4.18;;;2.38;;
51082;SDS011;37131;42.694;23.350;2022-07-05T11:11:23;7.57;;;2.85;;
51082;SDS011;37131;42.694;23.350;2022-07-05T11:13:53;4.40;;;2.28;;
51082;SDS011;37131;42.694;23.350;2022-07-05T11:16:23;4.50;;;2.45;;
51082;SDS011;37131;42.694;23.350;2022-07-05T11:18:51;3.50;;;2.30;;
51082;SDS011;37131;42.694;23.350;2022-07-05T11:21:21;8.88;;;2.63;;
51082;SDS011;37131;42.694;23.350;2022-07-05T11:23:48;6.28;;;2.15;;
51082;SDS011;37131;42.694;23.350;2022-07-05T11:26:15;7.65;;;2.30;;
51082;SDS011;37131;42.694;23.350;2022-07-05T11:28:46;5.00;;;1.90;;
51082;SDS011;37131;42.694;23.350;2022-07-05T11:31:12;4.45;;;2.35;;
51082;SDS011;37131;42.694;23.350;2022-07-05T11:33:58;5.88;;;2.22;;
51082;SDS011;37131;42.694;23.350;2022-07-05T11:36:38;5.82;;;2.22;;
51082;SDS011;37131;42.694;23.350;2022-07-05T11:41:48;5.55;;;2.30;;
51082;SDS011;37131;42.694;23.350;2022-07-05T11:44:15;9.25;;;3.42;;
51082;SDS011;37131;42.694;23.350;2022-07-05T11:46:42;6.32;;;2.42;;
51082;SDS011;37131;42.694;23.350;2022-07-05T11:49:08;3.80;;;2.38;;
51082;SDS011;37131;42.694;23.350;2022-07-05T11:51:33;5.43;;;2.35;;
51082;SDS011;37131;42.694;23.350;2022-07-05T11:53:59;5.63;;;2.63;;
51082;SDS011;37131;42.694;23.350;2022-07-05T11:56:26;3.75;;;2.50;;
51082;SDS011;37131;42.694;23.350;2022-07-05T11:58:52;3.67;;;2.17;;
51082;SDS011;37131;42.694;23.350;2022-07-05T12:01:17;3.83;;;1.85;;
51082;SDS011;37131;42.694;23.350;2022-07-05T12:03:53;6.82;;;2.42;;
51082;SDS011;37131;42.694;23.350;2022-07-05T12:06:20;7.85;;;2.38;;
51082;SDS011;37131;42.694;23.350;2022-07-05T12:08:46;5.50;;;2.40;;
51082;SDS011;37131;42.694;23.350;2022-07-05T12:11:12;3.47;;;2.30;;
51082;SDS011;37131;42.694;23.350;2022-07-05T12:13:56;4.93;;;2.72;;
51082;SDS011;37131;42.694;23.350;2022-07-05T12:16:22;7.03;;;2.25;;
51082;SDS011;37131;42.694;23.350;2022-07-05T12:18:48;4.43;;;2.05;;
51082;SDS011;37131;42.694;23.350;2022-07-05T12:21:15;4.45;;;2.60;;
51082;SDS011;37131;42.694;23.350;2022-07-05T12:23:41;3.65;;;2.30;;
51082;SDS011;37131;42.694;23.350;2022-07-05T12:26:08;5.35;;;1.77;;
51082;SDS011;37131;42.694;23.350;2022-07-05T12:28:34;11.95;;;3.00;;
51082;SDS011;37131;42.694;23.350;2022-07-05T12:31:13;3.92;;;2.10;;
51082;SDS011;37131;42.694;23.350;2022-07-05T12:33:43;4.45;;;2.20;;
51082;SDS011;37131;42.694;23.350;2022-07-05T12:36:11;4.10;;;2.28;;
51082;SDS011;37131;42.694;23.350;2022-07-05T12:38:38;5.35;;;2.45;;
51082;SDS011;37131;42.694;23.350;2022-07-05T12:41:04;3.85;;;2.58;;
51082;SDS011;37131;42.694;23.350;2022-07-05T12:43:29;6.18;;;2.53;;
51082;SDS011;37131;42.694;23.350;2022-07-05T12:48:33;5.43;;;2.40;;
51082;SDS011;37131;42.694;23.350;2022-07-05T12:51:03;4.40;;;2.42;;
51082;SDS011;37131;42.694;23.350;2022-07-05T12:53:30;3.15;;;2.08;;
51082;SDS011;37131;42.694;23.350;2022-07-05T12:56:14;4.78;;;2.38;;
51082;SDS011;37131;42.694;23.350;2022-07-05T12:59:07;4.38;;;2.45;;
51082;SDS011;37131;42.694;23.350;2022-07-05T13:01:34;8.55;;;2.28;;
51082;SDS011;37131;42.694;23.350;2022-07-05T13:06:44;3.63;;;2.00;;
51082;SDS011;37131;42.694;23.350;2022-07-05T13:09:11;5.45;;;2.22;;
51082;SDS011;37131;42.694;23.350;2022-07-05T13:11:37;6.38;;;2.58;;
51082;SDS011;37131;42.694;23.350;2022-07-05T13:14:03;6.32;;;2.42;;
51082;SDS011;37131;42.694;23.350;2022-07-05T13:16:28;4.40;;;2.55;;
51082;SDS011;37131;42.694;23.350;2022-07-05T13:18:54;3.50;;;2.40;;
51082;SDS011;37131;42.694;23.350;2022-07-05T13:21:19;4.38;;;2.35;;
51082;SDS011;37131;42.694;23.350;2022-07-05T13:23:45;3.97;;;2.30;;
51082;SDS011;37131;42.694;23.350;2022-07-05T13:26:10;5.28;;;2.40;;
51082;SDS011;37131;42.694;23.350;2022-07-05T13:28:36;7.55;;;2.60;;
51082;SDS011;37131;42.694;23.350;2022-07-05T13:31:01;6.68;;;2.45;;
51082;SDS011;37131;42.694;23.350;2022-07-05T13:33:27;4.80;;;2.40;;
51082;SDS011;37131;42.694;23.350;2022-07-05T13:35:52;4.70;;;2.55;;
51082;SDS011;37131;42.694;23.350;2022-07-05T13:38:18;6.05;;;2.55;;
51082;SDS011;37131;42.694;23.350;2022-07-05T13:40:44;4.38;;;2.45;;
51082;SDS011;37131;42.694;23.350;2022-07-05T13:43:10;6.38;;;2.67;;
51082;SDS011;37131;42.694;23.350;2022-07-05T13:45:35;6.97;;;2.70;;
51082;SDS011;37131;42.694;23.350;2022-07-05T13:48:00;6.63;;;2.63;;
51082;SDS011;37131;42.694;23.350;2022-07-05T13:50:27;5.45;;;2.35;;
51082;SDS011;37131;42.694;23.350;2022-07-05T13:52:59;4.68;;;2.22;;
51082;SDS011;37131;42.694;23.350;2022-07-05T13:55:26;6.03;;;2.50;;
51082;SDS011;37131;42.694;23.350;2022-07-05T13:57:51;8.00;;;2.67;;
51082;SDS011;37131;42.694;23.350;2022-07-05T14:00:17;4.70;;;1.95;;
51082;SDS011;37131;42.694;23.350;2022-07-05T14:02:43;5.93;;;2.28;;
51082;SDS011;37131;42.694;23.350;2022-07-05T14:05:08;5.93;;;2.20;;
51082;SDS011;37131;42.694;23.350;2022-07-05T14:07:35;4.55;;;2.05;;
51082;SDS011;37131;42.694;23.350;2022-07-05T14:10:01;2.92;;;2.30;;
51082;SDS011;37131;42.694;23.350;2022-07-05T14:12:28;5.68;;;2.05;;
51082;SDS011;37131;42.694;23.350;2022-07-05T14:14:53;2.95;;;2.17;;
51082;SDS011;37131;42.694;23.350;2022-07-05T14:17:18;2.88;;;2.00;;
51082;SDS011;37131;42.694;23.350;2022-07-05T14:19:44;3.33;;;2.30;;
51082;SDS011;37131;42.694;23.350;2022-07-05T14:22:09;3.55;;;2.20;;
51082;SDS011;37131;42.694;23.350;2022-07-05T14:24:35;5.55;;;2.20;;
51082;SDS011;37131;42.694;23.350;2022-07-05T14:27:00;4.40;;;2.20;;
51082;SDS011;37131;42.694;23.350;2022-07-05T14:29:26;5.72;;;2.45;;
51082;SDS011;37131;42.694;23.350;2022-07-05T14:31:51;3.72;;;2.38;;
51082;SDS011;37131;42.694;23.350;2022-07-05T14:34:16;3.97;;;2.28;;
51082;SDS011;37131;42.694;23.350;2022-07-05T14:36:42;5.43;;;2.47;;
51082;SDS011;37131;42.694;23.350;2022-07-05T14:39:07;5.28;;;2.20;;
51082;SDS011;37131;42.694;23.350;2022-07-05T14:41:33;5.28;;;2.35;;
51082;SDS011;37131;42.694;23.350;2022-07-05T14:43:58;7.07;;;2.28;;
51082;SDS011;37131;42.694;23.350;2022-07-05T14:46:24;4.25;;;2.38;;
51082;SDS011;37131;42.694;23.350;2022-07-05T14:48:49;4.05;;;2.45;;
51082;SDS011;37131;42.694;23.350;2022-07-05T14:51:15;2.97;;;2.08;;
51082;SDS011;37131;42.694;23.350;2022-07-05T14:53:40;6.05;;;2.35;;
51082;SDS011;37131;42.694;23.350;2022-07-05T14:56:11;3.55;;;2.10;;
51082;SDS011;37131;42.694;23.350;2022-07-05T14:58:37;5.90;;;2.08;;
51082;SDS011;37131;42.694;23.350;2022-07-05T15:01:02;6.22;;;2.47;;
51082;SDS011;37131;42.694;23.350;2022-07-05T15:03:28;6.50;;;2.63;;
51082;SDS011;37131;42.694;23.350;2022-07-05T15:05:53;3.97;;;2.33;;
51082;SDS011;37131;42.694;23.350;2022-07-05T15:08:20;3.83;;;2.13;;
51082;SDS011;37131;42.694;23.350;2022-07-05T15:10:46;5.25;;;2.42;;
51082;SDS011;37131;42.694;23.350;2022-07-05T15:13:11;3.67;;;2.35;;